Country
Station

 

Weather  for  Agadir  -  Morocco    Morocco

  
21 °C (70 °F)
    
 
 

Current METAR for Agadir is :

GMAA 161545Z 29012G22KT 7000 NSC 21/12 Q1017 NOSIG M0

 

This is a report for Agadir - Morocco.
 
The report was made 101 hours and 38 minutes ago, at 15:45 UTC .
The wind was blowing at a speed of 6.2 meters per second (13.8 miles per hour) with gusts up to 11.3 meters per second (25.3 miles per hour) from west/northwest (290°).
 
The temperature was 21 °C (70 °F), with a dew-point at 12 °C (54 °F).
The atmospheric pressure was 1017 hPa (30.03 inHg).
The relative humidity was 56.4%.
 
The overall visibility was 7.0 kilometers (4.3 miles).
 

 
 
 
 

Country :   A   B   C   D   E   F   G   H   I   J   K   L   M   N   O   P   Q   R   S   T   U   V   W   Y   Z

 

Site Info  |  Disclaimer  |  Credits  |  Privacy
Contact us  |  Add to favorites
© 2013-2019 METARs - All rights reserved